• Join FlightAware (Why Join?)
  • Login
  • US Flag 
09:03AM EDT


 

Airport Tracker/Info


-or-


 

Live Flight TrackerFlight Track Log ✈ JST245 ✈ 04-May-2013 ✈ NZAA / AKL - NZCH / CHC

Flight Track Log - Related Links

Times and Time Zones

All times are in EDT time to prevent confusion due to time zone crossing. See the JST245 flight status page for this flight to view local times or setup timezone preferences in your user account.

Time Position Orientation Groundspeed Altitude Reporting Facility
EDT Latitude Longitude Course Direction KTS MPH feet Rate Location/Type
04:32PM -37.0080 174.8020 70° East 135 155 800  Level FlightAware
04:32PM -37.0050 174.8170 76° East 127 146 1,800 2,100 Climbing FlightAware
04:33PM -37.0100 174.8300 116° Southeast 156 180 2,200 1,320 Climbing FlightAware
04:33PM -37.0220 174.8380 152° Southeast 195 224 2,600 1,500 Climbing FlightAware
04:33PM -37.0500 174.8320 190° South 251 289 3,200 1,800 Climbing FlightAware
04:33PM -37.0670 174.8240 201° Southwest 276 318 3,800 2,100 Climbing FlightAware
04:34PM -37.1040 174.8080 199° South 309 356 4,800 2,460 Climbing FlightAware
04:34PM -37.1430 174.7930 197° South 338 389 6,100 3,240 Climbing FlightAware
04:35PM -37.1890 174.7770 195° South 348 400 7,800 3,660 Climbing FlightAware
04:35PM -37.2400 174.7600 195° South 353 406 9,800 3,600 Climbing FlightAware
04:36PM -37.3040 174.7370 196° South 371 427 12,000 3,120 Climbing FlightAware
04:37PM -37.3730 174.7130 195° South 385 443 14,000 2,820 Climbing FlightAware
04:37PM -37.4520 174.6850 196° South 401 461 16,000 2,460 Climbing FlightAware
04:38PM -37.5180 174.6610 196° South 404 465 17,500 2,580 Climbing FlightAware
04:39PM -37.5980 174.6320 196° South 416 479 19,500 2,700 Climbing FlightAware
04:40PM -37.6810 174.6020 196° South 422 486 21,400 2,160 Climbing FlightAware
04:40PM -37.7690 174.5700 196° South 435 501 22,800 1,860 Climbing FlightAware
04:41PM -37.8470 174.5420 196° South 434 499 24,100 1,920 Climbing FlightAware
04:42PM -37.9280 174.5130 196° South 438 504 25,400 1,800 Climbing FlightAware
04:42PM -38.0160 174.4810 196° South 455 524 26,700 1,500 Climbing FlightAware
04:43PM -38.0960 174.4520 196° South 465 535 27,600 1,320 Climbing FlightAware
04:44PM -38.1920 174.4160 196° South 469 540 28,600 2,220 Climbing FlightAware
04:44PM -38.2750 174.3860 196° South 451 519 30,800 2,100 Climbing FlightAware
04:45PM -38.3590 174.3560 196° South 466 536 31,400 960 Climbing FlightAware
04:46PM -38.4510 174.3210 197° South 467 537 32,200 1,260 Climbing FlightAware
04:46PM -38.5230 174.2940 196° South 466 536 33,100 540 Climbing FlightAware
04:49PM -38.6841 174.2410 194° South  Level Estimated
04:50PM -38.7633 174.2148 194° South  Level Estimated
04:51PM -38.8425 174.1885 194° South  Level Estimated
04:52PM -38.9217 174.1622 194° South  Level Estimated
04:53PM -39.0009 174.1359 194° South  Level Estimated
04:54PM -39.0801 174.1095 195° South  Level Estimated
04:55PM -39.1593 174.0830 195° South  Level Estimated
04:56PM -39.2385 174.0565 195° South  Level Estimated
04:56PM -39.7350 173.8380 195° South 460 529 38,000  Level FlightAware
04:59PM -39.9095 173.7807 194° South  Level Estimated
05:00PM -39.9888 173.7545 194° South  Level Estimated
05:01PM -40.0681 173.7283 194° South  Level Estimated
05:02PM -40.1474 173.7020 194° South  Level Estimated
05:03PM -40.2267 173.6757 194° South  Level Estimated
05:04PM -40.3060 173.6492 194° South  Level Estimated
05:05PM -40.3853 173.6228 194° South  Level Estimated
05:06PM -40.4646 173.5963 194° South  Level Estimated
05:07PM -40.5438 173.5697 194° South  Level Estimated
05:08PM -40.6305 173.5405 194° South  Level Estimated
05:08PM -41.1840 173.2700 194° South 448 516 38,000  Level FlightAware
05:11PM -41.3757 173.2107 193° South  Level Estimated
05:12PM -41.4628 173.1837 193° South  Level Estimated
05:12PM -41.5760 173.1160 193° South 452 520 38,100  Level FlightAware
05:13PM -41.6950 173.0700 196° South 450 518 38,000 -540 Descending FlightAware
05:14PM -41.9040 172.9890 196° South 446 513 36,700 -1,620 Descending FlightAware
05:15PM -41.9950 172.9520 197° South 460 529 34,100 -3,060 Descending FlightAware
05:16PM -42.0970 172.9130 196° South 457 526 31,900 -2,760 Descending FlightAware
05:17PM -42.2280 172.8610 196° South 455 524 28,900 -2,520 Descending FlightAware
05:19PM -42.3628 172.8265 191° South  Level Estimated
05:19PM -42.4380 172.7770 191° South 432 497 24,700  Level FlightAware
05:19PM -42.5130 172.7470 196° South 425 489 23,000 -2,400 Descending FlightAware
05:20PM -42.5980 172.7130 196° South 417 480 21,300 -2,280 Descending FlightAware
05:21PM -42.6710 172.6840 196° South 406 467 19,800 -2,280 Descending FlightAware
05:22PM -42.7410 172.6550 197° South 399 459 18,300 -2,160 Descending FlightAware
05:22PM -42.8190 172.6230 197° South 385 443 16,800 -2,340 Descending FlightAware
05:23PM -42.8870 172.5960 196° South 386 444 15,000 -2,340 Descending FlightAware
05:24PM -42.9650 172.5650 196° South 373 429 13,500 -1,980 Descending FlightAware
05:24PM -43.0280 172.5390 197° South 360 414 12,200 -3,000 Descending FlightAware
05:25PM -43.0930 172.5140 196° South 383 441 9,500 -3,600 Descending FlightAware
05:26PM -43.1470 172.4920 197° South 383 441 8,000 -3,000 Descending FlightAware
05:26PM -43.1950 172.4730 196° South 375 432 6,500 -2,700 Descending FlightAware
05:26PM -43.2210 172.4630 196° South 368 423 6,000 -1,080 Descending FlightAware
05:27PM -43.2590 172.4470 197° South 334 384 5,800 -480 Descending FlightAware
05:27PM -43.3020 172.4310 195° South 299 344 5,600 -540 Descending FlightAware
05:27PM -43.3190 172.4240 197° South 284 327 5,400 -1,080 Descending FlightAware
05:28PM -43.3520 172.4120 195° South 268 308 4,900 -1,140 Descending FlightAware
05:28PM -43.3870 172.3980 196° South 256 295 4,400 -1,020 Descending FlightAware
05:29PM -43.4150 172.3870 196° South 246 283 4,000 -1,020 Descending FlightAware
05:29PM -43.4480 172.3750 195° South 236 272 3,500 -1,020 Descending FlightAware
05:30PM -43.4740 172.3710 186° South 224 258 3,100 -1,080 Descending FlightAware
05:30PM -43.4870 172.3770 161° South 211 243 2,800 -1,020 Descending FlightAware
05:30PM -43.4990 172.3910 140° Southeast 201 231 2,600 -840 Descending FlightAware
05:31PM -43.5170 172.4200 131° Southeast 193 222 2,200 -780 Descending FlightAware
05:31PM -43.5290 172.4410 128° Southeast 165 190 1,900 -900 Descending FlightAware
05:32PM -43.5390 172.4670 118° Southeast 134 154 1,400 -780 Descending FlightAware
05:32PM -43.5310 172.4830 55° Northeast 119 137 1,200 -600 Descending FlightAware
05:33PM -43.5190 172.4970 40° Northeast 124 143 900 -660 Descending FlightAware
05:33PM -43.5070 172.5110 40° Northeast 123 142 600 -780 Descending FlightAware
05:33PM -43.4940 172.5260 40° Northeast 122 140 200 -840 Descending FlightAware
05:34PM -43.4870 172.5350 43° Northeast 42 48 -480 Descending FlightAware
05:34PM -43.4850 172.5370 36° Northeast 21 24  Level FlightAware
05:37PM -43.4894 172.5322 218° Southwest  Level Estimated
05:38PM -43.4894 172.5322 299° West  Level Estimated
05:39PM -43.4894 172.5322 299° West  Level Estimated
05:40PM -43.4894 172.5322 299° West  Level Estimated
05:41PM -43.4894 172.5322 299° West  Level Estimated
05:42PM -43.4894 172.5322 299° West  Level Estimated